createdAt,value
2016-08-27T00:00:32.251Z,18.95
2016-08-27T00:01:32.922Z,18.92
2016-08-27T00:02:32.199Z,19
2016-08-27T00:03:32.163Z,18.88
2016-08-27T00:04:32.141Z,18.94
2016-08-27T00:05:32.798Z,18.94
2016-08-27T00:06:32.074Z,18.84
2016-08-27T00:07:32.735Z,18.91
2016-08-27T00:08:32.012Z,18.85
2016-08-27T00:09:32.683Z,18.84
2016-08-27T00:10:31.962Z,18.78
2016-08-27T00:11:31.931Z,18.78
2016-08-27T00:12:31.888Z,18.85
2016-08-27T00:13:32.558Z,18.76
2016-08-27T00:14:32.528Z,18.82
2016-08-27T00:15:32.498Z,18.72
2016-08-27T00:16:31.772Z,18.69
2016-08-27T00:17:32.437Z,18.7
2016-08-27T00:18:31.714Z,18.72
2016-08-27T00:19:32.383Z,18.69
2016-08-27T00:20:32.343Z,18.72
2016-08-27T00:21:32.318Z,18.73
2016-08-27T00:22:32.288Z,18.65
2016-08-27T00:23:32.258Z,18.72
2016-08-27T00:24:32.233Z,18.75
2016-08-27T00:25:31.501Z,18.67
2016-08-27T00:26:32.168Z,18.7
2016-08-27T00:27:32.137Z,18.72
2016-08-27T00:28:32.114Z,18.75
2016-08-27T00:29:32.085Z,18.73
2016-08-27T00:30:32.051Z,18.75
2016-08-27T00:31:32.019Z,18.72
2016-08-27T00:32:31.289Z,18.72
2016-08-27T00:33:31.961Z,18.65
2016-08-27T00:34:31.933Z,18.62
2016-08-27T00:35:31.897Z,18.62
2016-08-27T00:36:31.865Z,18.62
2016-08-27T00:37:31.140Z,18.65
2016-08-27T00:38:31.805Z,18.57
2016-08-27T00:39:31.778Z,18.57
2016-08-27T00:40:31.747Z,18.58
2016-08-27T00:41:31.711Z,18.6
2016-08-27T00:42:31.691Z,18.6
2016-08-27T00:43:31.658Z,18.52
2016-08-27T00:44:31.628Z,18.57
2016-08-27T00:45:30.895Z,18.57
2016-08-27T00:46:31.562Z,18.51
2016-08-27T00:47:30.837Z,18.51
2016-08-27T00:48:30.805Z,18.52
2016-08-27T00:49:31.470Z,18.5
2016-08-27T00:50:31.448Z,18.52
2016-08-27T00:51:30.714Z,18.52
2016-08-27T00:52:30.691Z,18.41
2016-08-27T00:53:31.354Z,18.42
2016-08-27T00:54:31.319Z,18.41
2016-08-27T00:55:30.593Z,18.39
2016-08-27T00:56:31.266Z,18.41
2016-08-27T00:57:30.533Z,18.36
2016-08-27T00:58:30.504Z,18.3
2016-08-27T00:59:31.166Z,18.32
2016-08-27T01:00:29.746Z,18.27
2016-08-27T01:01:31.114Z,18.29
2016-08-27T01:02:31.078Z,18.23
2016-08-27T01:03:31.044Z,18.27
2016-08-27T01:04:31.012Z,18.2
2016-08-27T01:05:30.992Z,18.18
2016-08-27T01:06:30.959Z,18.21
2016-08-27T01:07:30.927Z,18.17
2016-08-27T01:08:30.200Z,18.2
2016-08-27T01:09:30.865Z,18.08
2016-08-27T01:10:30.138Z,18.12
2016-08-27T01:11:30.816Z,18.07
2016-08-27T01:12:30.773Z,18.11
2016-08-27T01:13:30.741Z,18
2016-08-27T01:14:30.021Z,18.12
2016-08-27T01:15:29.988Z,18.08
2016-08-27T01:16:29.955Z,18.08
2016-08-27T01:17:30.635Z,17.96
2016-08-27T01:18:30.586Z,18.05
2016-08-27T01:19:29.863Z,18
2016-08-27T01:20:30.529Z,17.93
2016-08-27T01:21:30.499Z,17.97
2016-08-27T01:22:30.474Z,18
2016-08-27T01:23:29.740Z,17.89
2016-08-27T01:24:29.719Z,17.93
2016-08-27T01:25:29.690Z,17.87
2016-08-27T01:26:30.350Z,17.78
2016-08-27T01:27:29.621Z,17.84
2016-08-27T01:28:29.588Z,17.89
2016-08-27T01:29:30.249Z,17.82
2016-08-27T01:30:29.531Z,17.84
2016-08-27T01:31:28.802Z,17.78
2016-08-27T01:32:30.171Z,17.79
2016-08-27T01:33:30.135Z,17.79
2016-08-27T01:34:30.105Z,17.77
2016-08-27T01:35:29.378Z,17.79
2016-08-27T01:36:30.044Z,17.75
2016-08-27T01:37:29.310Z,17.77
2016-08-27T01:38:29.978Z,17.75
2016-08-27T01:39:29.946Z,17.77
2016-08-27T01:40:29.222Z,17.71
2016-08-27T01:41:29.899Z,17.71
2016-08-27T01:42:29.157Z,17.78
2016-08-27T01:43:29.132Z,17.74
2016-08-27T01:44:29.796Z,17.77
2016-08-27T01:45:29.063Z,17.72
2016-08-27T01:46:29.751Z,17.68
2016-08-27T01:47:29.008Z,17.66
2016-08-27T01:48:28.981Z,17.66
2016-08-27T01:49:29.643Z,17.64
2016-08-27T01:50:28.909Z,17.72
2016-08-27T01:51:29.580Z,17.72
2016-08-27T01:52:29.549Z,17.7
2016-08-27T01:53:29.518Z,17.62
2016-08-27T01:54:28.793Z,17.71
2016-08-27T01:55:29.457Z,17.64
2016-08-27T01:56:28.728Z,17.62
2016-08-27T01:57:28.003Z,17.64
2016-08-27T01:58:29.365Z,17.58
2016-08-27T01:59:29.338Z,17.49
2016-08-27T02:00:28.607Z,17.54
2016-08-27T02:01:28.580Z,17.52
2016-08-27T02:02:28.544Z,17.56
2016-08-27T02:03:29.207Z,17.46
2016-08-27T02:04:28.485Z,17.58
2016-08-27T02:05:28.451Z,17.55
2016-08-27T02:06:29.115Z,17.55
2016-08-27T02:07:29.095Z,17.54
2016-08-27T02:08:29.061Z,17.51
2016-08-27T02:09:29.036Z,17.51
2016-08-27T02:10:28.999Z,17.51
2016-08-27T02:11:28.266Z,17.51
2016-08-27T02:12:28.936Z,17.48
2016-08-27T02:13:28.899Z,17.56
2016-08-27T02:14:28.876Z,17.49
2016-08-27T02:15:28.143Z,17.46
2016-08-27T02:16:28.116Z,17.51
2016-08-27T02:17:27.386Z,17.56
2016-08-27T02:18:28.749Z,17.54
2016-08-27T02:19:27.324Z,17.52
2016-08-27T02:20:28.687Z,17.49
2016-08-27T02:21:28.656Z,17.43
2016-08-27T02:22:28.625Z,17.51
2016-08-27T02:23:28.589Z,17.51
2016-08-27T02:24:28.562Z,17.52
2016-08-27T02:25:28.530Z,17.44
2016-08-27T02:26:28.503Z,17.4
2016-08-27T02:27:28.473Z,17.38
2016-08-27T02:28:28.440Z,17.43
2016-08-27T02:29:27.706Z,17.36
2016-08-27T02:30:28.381Z,17.38
2016-08-27T02:31:27.655Z,17.4
2016-08-27T02:32:28.315Z,17.38
2016-08-27T02:33:28.301Z,17.4
2016-08-27T02:34:28.253Z,17.38
2016-08-27T02:35:27.524Z,17.37
2016-08-27T02:36:28.191Z,17.37
2016-08-27T02:37:28.156Z,17.33
2016-08-27T02:38:27.432Z,17.43
2016-08-27T02:39:27.400Z,17.36
2016-08-27T02:40:27.378Z,17.34
2016-08-27T02:41:28.046Z,17.4
2016-08-27T02:42:28.006Z,17.33
2016-08-27T02:43:27.974Z,17.19
2016-08-27T02:44:27.241Z,17.33
2016-08-27T02:45:27.212Z,17.21
2016-08-27T02:46:27.880Z,17.26
2016-08-27T02:47:27.849Z,17.28
2016-08-27T02:48:27.818Z,17.19
2016-08-27T02:49:27.799Z,17.18
2016-08-27T02:50:27.751Z,17.19
2016-08-27T02:51:27.724Z,17.23
2016-08-27T02:52:26.999Z,17.08
2016-08-27T02:53:26.973Z,17.11
2016-08-27T02:54:27.635Z,17.18
2016-08-27T02:55:27.602Z,17.21
2016-08-27T02:56:27.581Z,17.07
2016-08-27T02:57:27.539Z,17.14
2016-08-27T02:58:27.508Z,17.04
2016-08-27T02:59:27.479Z,17.06
2016-08-27T03:00:27.451Z,17.07
2016-08-27T03:01:26.725Z,17.04
2016-08-27T03:02:27.394Z,17.15
2016-08-27T03:03:26.652Z,17.11
2016-08-27T03:04:27.330Z,17.14
2016-08-27T03:05:27.290Z,17.11
2016-08-27T03:06:26.565Z,17.11
2016-08-27T03:07:27.227Z,17.11
2016-08-27T03:08:27.211Z,17.06
2016-08-27T03:09:27.169Z,17.08
2016-08-27T03:10:27.135Z,17.08
2016-08-27T03:11:27.101Z,17.03
2016-08-27T03:12:27.079Z,17.01
2016-08-27T03:13:27.040Z,17.06
2016-08-27T03:14:27.013Z,17.08
2016-08-27T03:15:26.285Z,17.12
2016-08-27T03:16:26.945Z,16.96
2016-08-27T03:17:26.921Z,17.06
2016-08-27T03:18:26.195Z,17.03
2016-08-27T03:19:26.167Z,16.94
2016-08-27T03:20:26.127Z,16.89
2016-08-27T03:21:26.095Z,17
2016-08-27T03:22:26.065Z,17.01
2016-08-27T03:23:26.038Z,16.94
2016-08-27T03:24:26.703Z,16.86
2016-08-27T03:25:26.676Z,16.91
2016-08-27T03:26:25.942Z,16.96
2016-08-27T03:27:25.214Z,16.86
2016-08-27T03:28:25.878Z,16.85
2016-08-27T03:29:26.543Z,16.94
2016-08-27T03:30:26.514Z,16.85
2016-08-27T03:31:25.088Z,16.93
2016-08-27T03:32:26.457Z,16.81
2016-08-27T03:33:25.722Z,16.78
2016-08-27T03:34:25.712Z,16.82
2016-08-27T03:35:25.682Z,16.82
2016-08-27T03:36:26.325Z,16.82
2016-08-27T03:37:26.296Z,16.83
2016-08-27T03:38:26.266Z,16.79
2016-08-27T03:39:26.231Z,16.83
2016-08-27T03:40:26.199Z,16.86
2016-08-27T03:41:25.477Z,16.82
2016-08-27T03:42:26.140Z,16.79
2016-08-27T03:43:26.108Z,16.85
2016-08-27T03:44:25.379Z,16.86
2016-08-27T03:45:25.348Z,16.81
2016-08-27T03:46:25.316Z,16.83
2016-08-27T03:47:25.979Z,16.82
2016-08-27T03:48:25.953Z,16.79
2016-08-27T03:49:25.922Z,16.83
2016-08-27T03:50:25.192Z,16.81
2016-08-27T03:51:25.159Z,16.81
2016-08-27T03:52:25.138Z,16.81
2016-08-27T03:53:25.098Z,16.79
2016-08-27T03:54:25.764Z,16.73
2016-08-27T03:55:25.736Z,16.68
2016-08-27T03:56:25.009Z,16.76
2016-08-27T03:57:25.675Z,16.79
2016-08-27T03:58:24.947Z,16.79
2016-08-27T03:59:24.913Z,16.85
2016-08-27T04:00:25.574Z,16.79
2016-08-27T04:01:25.550Z,16.76
2016-08-27T04:02:25.511Z,16.83
2016-08-27T04:03:25.480Z,16.82
2016-08-27T04:04:24.752Z,16.86
2016-08-27T04:05:25.422Z,16.93
2016-08-27T04:06:25.386Z,16.96
2016-08-27T04:07:25.356Z,16.88
2016-08-27T04:08:25.328Z,16.91
2016-08-27T04:09:24.599Z,16.96
2016-08-27T04:10:25.268Z,16.97
2016-08-27T04:11:24.535Z,16.91
2016-08-27T04:12:25.197Z,16.94
2016-08-27T04:13:24.490Z,16.85
2016-08-27T04:14:24.441Z,16.82
2016-08-27T04:15:25.104Z,16.82
2016-08-27T04:16:25.078Z,16.86
2016-08-27T04:17:25.048Z,16.79
2016-08-27T04:18:23.622Z,16.82
2016-08-27T04:19:24.982Z,16.86
2016-08-27T04:20:24.952Z,16.79
2016-08-27T04:21:24.225Z,16.78
2016-08-27T04:22:24.894Z,16.75
2016-08-27T04:23:24.870Z,16.73
2016-08-27T04:24:24.827Z,16.66
2016-08-27T04:25:24.809Z,16.73
2016-08-27T04:26:24.761Z,16.71
2016-08-27T04:27:24.729Z,16.64
2016-08-27T04:28:24.003Z,16.66
2016-08-27T04:29:24.668Z,16.64
2016-08-27T04:30:24.637Z,16.53
2016-08-27T04:31:23.909Z,16.58
2016-08-27T04:32:24.573Z,16.61
2016-08-27T04:33:24.545Z,16.56
2016-08-27T04:34:24.512Z,16.5
2016-08-27T04:35:24.483Z,16.58
2016-08-27T04:36:23.758Z,16.53
2016-08-27T04:37:24.413Z,16.58
2016-08-27T04:38:24.385Z,16.56
2016-08-27T04:39:23.661Z,16.45
2016-08-27T04:40:24.321Z,16.56
2016-08-27T04:41:24.293Z,16.46
2016-08-27T04:42:24.272Z,16.48
2016-08-27T04:43:24.237Z,16.45
2016-08-27T04:44:23.500Z,16.53
2016-08-27T04:45:24.171Z,16.49
2016-08-27T04:46:24.136Z,16.5
2016-08-27T04:47:24.104Z,16.52
2016-08-27T04:48:24.073Z,16.48
2016-08-27T04:49:23.347Z,16.53
2016-08-27T04:50:24.019Z,16.56
2016-08-27T04:51:23.975Z,16.52
2016-08-27T04:52:23.947Z,16.56
2016-08-27T04:53:23.220Z,16.56
2016-08-27T04:54:23.886Z,16.6
2016-08-27T04:55:23.857Z,16.64
2016-08-27T04:56:23.827Z,16.66
2016-08-27T04:57:23.790Z,16.78
2016-08-27T04:58:23.061Z,16.7
2016-08-27T04:59:22.339Z,16.66
2016-08-27T05:00:23.005Z,16.76
2016-08-27T05:01:22.971Z,16.79
2016-08-27T05:02:23.634Z,16.83
2016-08-27T05:03:23.601Z,16.81
2016-08-27T05:04:23.575Z,16.81
2016-08-27T05:05:22.842Z,16.79
2016-08-27T05:06:23.506Z,16.96
2016-08-27T05:07:22.782Z,16.96
2016-08-27T05:08:22.749Z,17
2016-08-27T05:09:23.422Z,17.15
2016-08-27T05:10:23.382Z,17.37
2016-08-27T05:11:23.349Z,17.41
2016-08-27T05:12:23.318Z,17.4
2016-08-27T05:13:23.292Z,17.59
2016-08-27T05:14:23.267Z,17.78
2016-08-27T05:15:23.236Z,18.14
2016-08-27T05:16:23.212Z,18.45
2016-08-27T05:17:23.164Z,18.84
2016-08-27T05:18:23.136Z,19.19
2016-08-27T05:19:22.412Z,19.51
2016-08-27T05:20:23.081Z,19.91
2016-08-27T05:21:23.051Z,20.29
2016-08-27T05:22:23.014Z,20.73
2016-08-27T05:23:22.985Z,20.98
2016-08-27T05:24:22.956Z,21.28
2016-08-27T05:25:22.927Z,21.56
2016-08-27T05:26:22.200Z,22.02
2016-08-27T05:27:22.880Z,22.15
2016-08-27T05:28:22.839Z,22.54
2016-08-27T05:29:22.815Z,22.77
2016-08-27T05:30:22.086Z,23
2016-08-27T05:31:22.056Z,23.23
2016-08-27T05:32:22.722Z,23.54
2016-08-27T05:33:22.699Z,23.85
2016-08-27T05:34:21.284Z,23.97
2016-08-27T05:35:22.644Z,24.22
2016-08-27T05:36:21.919Z,24.31
2016-08-27T05:37:22.588Z,24.61
2016-08-27T05:38:21.866Z,24.87
2016-08-27T05:39:22.531Z,25.14
2016-08-27T05:40:22.509Z,25.38
2016-08-27T05:41:21.787Z,25.57
2016-08-27T05:42:22.459Z,25.77
2016-08-27T05:43:22.440Z,26.13
2016-08-27T05:44:22.402Z,26.32
2016-08-27T05:45:22.377Z,26.54
2016-08-27T05:46:22.352Z,26.73
2016-08-27T05:47:22.326Z,27
2016-08-27T05:48:21.604Z,27.31
2016-08-27T05:49:22.274Z,27.5
2016-08-27T05:50:22.250Z,27.65
2016-08-27T05:51:21.530Z,27.79
2016-08-27T05:52:22.197Z,27.93
2016-08-27T05:53:22.191Z,28
2016-08-27T05:54:21.450Z,28.25
2016-08-27T05:55:22.128Z,28.48
2016-08-27T05:56:22.108Z,28.54
2016-08-27T05:57:22.080Z,28.74
2016-08-27T05:58:22.060Z,28.89
2016-08-27T05:59:21.333Z,29.09
2016-08-27T06:00:21.309Z,29.21
2016-08-27T06:01:21.982Z,29.39
2016-08-27T06:02:21.278Z,29.71
2016-08-27T06:03:21.238Z,29.95
2016-08-27T06:04:21.216Z,30.17
2016-08-27T06:05:21.890Z,30.27
2016-08-27T06:06:21.169Z,30.37
2016-08-27T06:07:21.161Z,30.72
2016-08-27T06:08:21.139Z,30.97
2016-08-27T06:09:21.808Z,31.14
2016-08-27T06:10:21.786Z,31.28
2016-08-27T06:11:21.060Z,31.57
2016-08-27T06:12:21.726Z,31.8
2016-08-27T06:13:21.708Z,32.06
2016-08-27T06:14:21.691Z,32.28
2016-08-27T06:15:20.970Z,32.29
2016-08-27T06:16:21.644Z,32.56
2016-08-27T06:17:20.925Z,32.75
2016-08-27T06:18:20.905Z,32.96
2016-08-27T06:19:21.581Z,33
2016-08-27T06:20:21.558Z,33.14
2016-08-27T06:21:21.538Z,33.26
2016-08-27T06:22:20.819Z,33.37
2016-08-27T06:23:20.798Z,33.39
2016-08-27T06:24:20.083Z,33.6
2016-08-27T06:25:21.453Z,33.81
2016-08-27T06:26:20.734Z,33.91
2016-08-27T06:27:21.415Z,34.24
2016-08-27T06:28:21.399Z,34.46
2016-08-27T06:29:19.981Z,34.66
2016-08-27T06:30:19.981Z,34.72
2016-08-27T06:31:20.635Z,34.66
2016-08-27T06:32:21.310Z,34.82
2016-08-27T06:33:21.292Z,34.97
2016-08-27T06:34:20.577Z,35.11
2016-08-27T06:35:21.251Z,35.29
2016-08-27T06:36:21.232Z,35.52
2016-08-27T06:37:21.210Z,35.58
2016-08-27T06:38:21.204Z,35.78
2016-08-27T06:39:21.173Z,35.89
2016-08-27T06:40:20.456Z,36.08
2016-08-27T06:41:21.131Z,36.23
2016-08-27T06:42:20.428Z,36.27
2016-08-27T06:43:20.394Z,36.5
2016-08-27T06:44:21.085Z,36.83
2016-08-27T06:45:20.360Z,37.03
2016-08-27T06:46:21.035Z,37.22
2016-08-27T06:47:21.027Z,37.41
2016-08-27T06:48:21.001Z,37.4
2016-08-27T06:49:20.979Z,37.47
2016-08-27T06:50:20.261Z,37.59
2016-08-27T06:51:20.244Z,37.56
2016-08-27T06:52:20.226Z,37.59
2016-08-27T06:53:20.204Z,37.85
2016-08-27T06:54:20.906Z,38.03
2016-08-27T06:55:20.871Z,38.34
2016-08-27T06:56:20.848Z,38.61
2016-08-27T06:57:20.846Z,38.76
2016-08-27T06:58:20.809Z,38.93
2016-08-27T06:59:20.098Z,39.1
2016-08-27T07:00:20.776Z,39.28
2016-08-27T07:01:20.760Z,39.67
2016-08-27T07:02:19.348Z,39.98
2016-08-27T07:03:20.736Z,39.97
2016-08-27T07:04:20.705Z,40.03
2016-08-27T07:05:19.989Z,40.1
2016-08-27T07:06:20.673Z,40.22
2016-08-27T07:07:19.967Z,40.46
2016-08-27T07:08:19.960Z,40.58
2016-08-27T07:09:20.635Z,40.83
2016-08-27T07:10:19.911Z,40.89
2016-08-27T07:11:20.583Z,40.99
2016-08-27T07:12:20.578Z,41.07
2016-08-27T07:13:20.561Z,41.3
2016-08-27T07:14:20.539Z,41.44
2016-08-27T07:15:20.512Z,41.66
2016-08-27T07:16:20.503Z,41.78
2016-08-27T07:17:20.489Z,41.8
2016-08-27T07:18:19.788Z,41.82
2016-08-27T07:19:19.759Z,41.9
2016-08-27T07:20:20.439Z,42.05
2016-08-27T07:21:19.729Z,42.06
2016-08-27T07:22:20.406Z,42.12
2016-08-27T07:23:20.389Z,42.3
2016-08-27T07:24:19.676Z,42.57
2016-08-27T07:25:20.365Z,42.81
2016-08-27T07:26:19.644Z,42.92
2016-08-27T07:27:20.324Z,42.77
2016-08-27T07:28:20.315Z,42.64
2016-08-27T07:29:20.298Z,42.47
2016-08-27T07:30:19.598Z,42.13
2016-08-27T07:31:20.264Z,42.18
2016-08-27T07:32:20.247Z,42.28
2016-08-27T07:33:20.225Z,42.2
2016-08-27T07:34:20.219Z,41.94
2016-08-27T07:35:20.198Z,41.96
2016-08-27T07:36:20.182Z,41.74
2016-08-27T07:37:19.466Z,41.23
2016-08-27T07:38:19.452Z,41.06
2016-08-27T07:39:20.135Z,40.83
2016-08-27T07:40:20.126Z,40.99
2016-08-27T07:41:20.106Z,40.96
2016-08-27T07:42:20.084Z,40.55
2016-08-27T07:43:20.068Z,40.15
2016-08-27T07:44:20.056Z,39.75
2016-08-27T07:45:19.342Z,39.67
2016-08-27T07:46:20.018Z,39.64
2016-08-27T07:47:20.004Z,40
2016-08-27T07:48:19.290Z,40.06
2016-08-27T07:49:19.276Z,40.1
2016-08-27T07:50:19.260Z,40.2
2016-08-27T07:51:19.939Z,40.01
2016-08-27T07:52:19.927Z,39.48
2016-08-27T07:53:19.210Z,39.38
2016-08-27T07:54:19.192Z,39.66
2016-08-27T07:55:19.175Z,39.62
2016-08-27T07:56:19.168Z,39.1
2016-08-27T07:57:19.839Z,38.46
2016-08-27T07:58:19.124Z,38.25
2016-08-27T07:59:18.413Z,38.26
2016-08-27T08:00:19.793Z,37.82
2016-08-27T08:01:19.783Z,37.64
2016-08-27T08:02:19.073Z,38.16
2016-08-27T08:03:19.731Z,38.74
2016-08-27T08:04:19.719Z,38.98
2016-08-27T08:05:19.704Z,38.96
2016-08-27T08:06:18.984Z,39.36
2016-08-27T08:07:18.970Z,39.44
2016-08-27T08:08:18.949Z,39.23
2016-08-27T08:09:18.934Z,39.29
2016-08-27T08:10:19.611Z,39.55
2016-08-27T08:11:19.599Z,40.35
2016-08-27T08:12:18.881Z,40.92
2016-08-27T08:13:19.561Z,41.62
2016-08-27T08:14:19.563Z,41.71
2016-08-27T08:15:18.827Z,41.51
2016-08-27T08:16:19.509Z,41.28
2016-08-27T08:17:19.493Z,41.36
2016-08-27T08:18:18.101Z,41.41
2016-08-27T08:19:19.458Z,41.48
2016-08-27T08:20:19.443Z,41.47
2016-08-27T08:21:18.723Z,41.58
2016-08-27T08:22:18.016Z,41.74
2016-08-27T08:23:19.393Z,41.76
2016-08-27T08:24:19.372Z,42.08
2016-08-27T08:25:19.357Z,42.17
2016-08-27T08:26:18.644Z,41.87
2016-08-27T08:27:19.323Z,41.58
2016-08-27T08:28:19.307Z,41.18
2016-08-27T08:29:19.292Z,41.32
2016-08-27T08:30:19.277Z,40.98
2016-08-27T08:31:19.262Z,41.35
2016-08-27T08:32:19.243Z,41.28
2016-08-27T08:33:18.528Z,41.11
2016-08-27T08:34:19.211Z,40.83
2016-08-27T08:35:18.498Z,40.98
2016-08-27T08:36:18.478Z,41.83
2016-08-27T08:37:18.462Z,42.71
2016-08-27T08:38:19.150Z,43.37
2016-08-27T08:39:19.130Z,43.6
2016-08-27T08:40:18.414Z,43.84
2016-08-27T08:41:18.403Z,44.64
2016-08-27T08:42:18.381Z,45.29
2016-08-27T08:43:18.367Z,45.32
2016-08-27T08:44:18.355Z,44.64
2016-08-27T08:45:19.042Z,44.16
2016-08-27T08:46:18.322Z,43.86
2016-08-27T08:47:18.304Z,44.1
2016-08-27T08:48:18.297Z,44.02
2016-08-27T08:49:18.982Z,44.29
2016-08-27T08:50:18.966Z,44.88
2016-08-27T08:51:18.941Z,45.47
2016-08-27T08:52:18.233Z,46.01
2016-08-27T08:53:18.915Z,46.65
2016-08-27T08:54:18.902Z,46.83
2016-08-27T08:55:18.884Z,46.49
2016-08-27T08:56:18.171Z,46.23
2016-08-27T08:57:18.163Z,46.31
2016-08-27T08:58:18.143Z,46.74
2016-08-27T08:59:18.836Z,47.15
2016-08-27T09:00:18.120Z,46.91
2016-08-27T09:01:18.802Z,46.74
2016-08-27T09:02:18.787Z,46.58
2016-08-27T09:03:18.776Z,46.31
2016-08-27T09:04:18.758Z,46.33
2016-08-27T09:05:18.748Z,46.46
2016-08-27T09:06:18.036Z,46.21
2016-08-27T09:07:18.717Z,45.61
2016-08-27T09:08:18.709Z,45.51
2016-08-27T09:09:18.690Z,45.72
2016-08-27T09:10:18.678Z,45.73
2016-08-27T09:11:18.668Z,45.6
2016-08-27T09:12:17.949Z,44.88
2016-08-27T09:13:17.943Z,44.13
2016-08-27T09:14:18.625Z,44.36
2016-08-27T09:15:18.612Z,44.78
2016-08-27T09:16:18.603Z,44.75
2016-08-27T09:17:18.590Z,44.86
2016-08-27T09:18:18.579Z,45.48
2016-08-27T09:19:17.864Z,45.86
2016-08-27T09:20:18.549Z,45.74
2016-08-27T09:21:18.530Z,45.74
2016-08-27T09:22:17.828Z,45.88
2016-08-27T09:23:18.504Z,46.34
2016-08-27T09:24:17.800Z,46.95
2016-08-27T09:25:18.476Z,47.09
2016-08-27T09:26:18.464Z,46.88
2016-08-27T09:27:18.449Z,46.83
2016-08-27T09:28:17.742Z,46.83
2016-08-27T09:29:17.038Z,46.96
2016-08-27T09:30:18.411Z,46.88
2016-08-27T09:31:17.706Z,46.95
2016-08-27T09:32:18.389Z,47.29
2016-08-27T09:33:18.376Z,47.17
2016-08-27T09:34:17.666Z,46.64
2016-08-27T09:35:17.656Z,46.31
2016-08-27T09:36:17.645Z,46.5
2016-08-27T09:37:18.330Z,46.86
2016-08-27T09:38:17.622Z,47.36
2016-08-27T09:39:18.304Z,47.66
2016-08-27T09:40:18.295Z,47.72
2016-08-27T09:41:18.287Z,47.95
2016-08-27T09:42:18.269Z,47.92
2016-08-27T09:43:18.254Z,47.5
2016-08-27T09:44:17.546Z,47.45
2016-08-27T09:45:18.232Z,47.7
2016-08-27T09:46:17.521Z,47.54
2016-08-27T09:47:18.209Z,47.51
2016-08-27T09:48:18.190Z,47.45
2016-08-27T09:49:18.185Z,47.57
2016-08-27T09:50:18.178Z,47.54
2016-08-27T09:51:18.160Z,47.45
2016-08-27T09:52:17.454Z,47.25
2016-08-27T09:53:18.132Z,47.43
2016-08-27T09:54:18.129Z,47.69
2016-08-27T09:55:18.112Z,47.06
2016-08-27T09:56:17.401Z,46.09
2016-08-27T09:57:18.087Z,45.73
2016-08-27T09:58:16.686Z,45.57
2016-08-27T09:59:17.371Z,45.58
2016-08-27T10:00:17.361Z,45.98
2016-08-27T10:01:18.056Z,46.35
2016-08-27T10:02:17.330Z,46.12
2016-08-27T10:03:18.020Z,45.76
2016-08-27T10:04:18.013Z,45.7
2016-08-27T10:05:17.992Z,45.7
2016-08-27T10:06:17.981Z,45.7
2016-08-27T10:07:17.274Z,45.72
2016-08-27T10:08:17.961Z,45.86
2016-08-27T10:09:17.247Z,45.93
2016-08-27T10:10:17.946Z,46.28
2016-08-27T10:11:17.232Z,46.59
2016-08-27T10:12:17.917Z,46.84
2016-08-27T10:13:17.214Z,47
2016-08-27T10:14:17.192Z,47.25
2016-08-27T10:15:17.879Z,47.34
2016-08-27T10:16:17.179Z,47.03
2016-08-27T10:17:17.161Z,46.66
2016-08-27T10:18:17.845Z,46.39
2016-08-27T10:19:17.836Z,46.53
2016-08-27T10:20:17.821Z,46.72
2016-08-27T10:21:17.806Z,46.72
2016-08-27T10:22:17.095Z,46.65
2016-08-27T10:23:17.088Z,46.34
2016-08-27T10:24:17.788Z,45.92
2016-08-27T10:25:17.767Z,45.7
2016-08-27T10:26:17.057Z,45.76
2016-08-27T10:27:17.747Z,45.45
2016-08-27T10:28:17.031Z,45.61
2016-08-27T10:29:17.712Z,45.88
2016-08-27T10:30:16.313Z,45.72
2016-08-27T10:31:17.696Z,45.45
2016-08-27T10:32:17.682Z,45.53
2016-08-27T10:33:17.672Z,45.91
2016-08-27T10:34:16.267Z,46.4
2016-08-27T10:35:16.953Z,46.46
2016-08-27T10:36:17.631Z,46.39
2016-08-27T10:37:16.924Z,46.31
2016-08-27T10:38:16.222Z,46.14
2016-08-27T10:39:16.897Z,45.95
2016-08-27T10:40:17.583Z,45.61
2016-08-27T10:41:16.874Z,45.77
2016-08-27T10:42:17.563Z,46.15
2016-08-27T10:43:17.564Z,46.69
2016-08-27T10:44:17.535Z,47.05
2016-08-27T10:45:16.825Z,47.45
2016-08-27T10:46:17.522Z,47.76
2016-08-27T10:47:17.502Z,48.06
2016-08-27T10:48:16.786Z,48.48
2016-08-27T10:49:17.478Z,48.55
2016-08-27T10:50:16.765Z,48.67
2016-08-27T10:51:17.451Z,48.79
2016-08-27T10:52:16.737Z,49.09
2016-08-27T10:53:17.423Z,49.39
2016-08-27T10:54:17.407Z,49.59
2016-08-27T10:55:17.396Z,49.4
2016-08-27T10:56:16.691Z,49.32
2016-08-27T10:57:16.676Z,49.22
2016-08-27T10:58:17.360Z,49.25
2016-08-27T10:59:17.345Z,49.28
2016-08-27T11:00:17.347Z,49.24
2016-08-27T11:01:16.620Z,49.03
2016-08-27T11:02:17.305Z,48.86
2016-08-27T11:03:17.294Z,48.76
2016-08-27T11:04:17.276Z,48.73
2016-08-27T11:05:17.275Z,48.69
2016-08-27T11:06:17.253Z,48.45
2016-08-27T11:07:17.240Z,48.3
2016-08-27T11:08:15.833Z,47.97
2016-08-27T11:09:17.220Z,47.4
2016-08-27T11:10:17.202Z,47
2016-08-27T11:11:17.189Z,46.5
2016-08-27T11:12:17.180Z,45.61
2016-08-27T11:13:17.162Z,44.76
2016-08-27T11:14:16.446Z,43.98
2016-08-27T11:15:15.741Z,43.34
2016-08-27T11:16:16.423Z,42.99
2016-08-27T11:17:17.112Z,42.86
2016-08-27T11:18:17.105Z,42.45
2016-08-27T11:19:17.077Z,41.9
2016-08-27T11:20:17.083Z,41.62
2016-08-27T11:21:16.346Z,41.32
2016-08-27T11:22:17.033Z,40.94
2016-08-27T11:23:16.322Z,40.88
2016-08-27T11:24:17.001Z,40.72
2016-08-27T11:25:16.986Z,40.55
2016-08-27T11:26:16.966Z,40.29
2016-08-27T11:27:16.953Z,39.77
2016-08-27T11:28:15.548Z,38.91
2016-08-27T11:29:16.913Z,38.26
2016-08-27T11:30:16.905Z,37.89
2016-08-27T11:31:16.879Z,37.55
2016-08-27T11:32:16.857Z,37.07
2016-08-27T11:33:16.841Z,36.47
2016-08-27T11:34:16.124Z,36.01
2016-08-27T11:35:16.113Z,35.4
2016-08-27T11:36:16.085Z,34.82
2016-08-27T11:37:16.761Z,34.34
2016-08-27T11:38:16.749Z,33.84
2016-08-27T11:39:16.028Z,33.61
2016-08-27T11:40:15.346Z,33.22
2016-08-27T11:41:15.993Z,32.94
2016-08-27T11:42:16.672Z,32.6
2016-08-27T11:43:16.649Z,32.19
2016-08-27T11:44:15.929Z,32.11
2016-08-27T11:45:16.603Z,31.85
2016-08-27T11:46:16.583Z,31.56
2016-08-27T11:47:16.567Z,31.32
2016-08-27T11:48:16.541Z,31.16
2016-08-27T11:49:15.829Z,31.04
2016-08-27T11:50:15.801Z,30.98
2016-08-27T11:51:15.789Z,30.86
2016-08-27T11:52:15.061Z,30.76
2016-08-27T11:53:16.435Z,30.89
2016-08-27T11:54:15.717Z,30.92
2016-08-27T11:55:15.692Z,30.91
2016-08-27T11:56:16.375Z,31.02
2016-08-27T11:57:16.346Z,31.06
2016-08-27T11:58:16.320Z,30.99
2016-08-27T11:59:15.607Z,30.99
2016-08-27T12:00:16.283Z,31.07
2016-08-27T12:01:15.555Z,30.99
2016-08-27T12:02:16.235Z,31.01
2016-08-27T12:03:16.210Z,31.02
2016-08-27T12:04:16.191Z,30.92
2016-08-27T12:05:15.472Z,30.92
2016-08-27T12:06:16.138Z,30.89
2016-08-27T12:07:16.118Z,30.94
2016-08-27T12:08:14.706Z,30.94
2016-08-27T12:09:15.379Z,30.84
2016-08-27T12:10:16.061Z,30.64
2016-08-27T12:11:16.029Z,30.65
2016-08-27T12:12:16.005Z,30.55
2016-08-27T12:13:15.983Z,30.58
2016-08-27T12:14:15.951Z,30.58
2016-08-27T12:15:15.239Z,30.64
2016-08-27T12:16:15.910Z,30.62
2016-08-27T12:17:15.892Z,30.62
2016-08-27T12:18:15.860Z,30.8
2016-08-27T12:19:15.142Z,30.8
2016-08-27T12:20:15.821Z,30.67
2016-08-27T12:21:15.094Z,30.7
2016-08-27T12:22:15.071Z,30.65
2016-08-27T12:23:15.754Z,30.8
2016-08-27T12:24:15.721Z,30.91
2016-08-27T12:25:15.700Z,30.88
2016-08-27T12:26:14.984Z,30.94
2016-08-27T12:27:14.964Z,31.04
2016-08-27T12:28:15.631Z,31.1
2016-08-27T12:29:15.599Z,30.94
2016-08-27T12:30:15.584Z,31.09
2016-08-27T12:31:15.558Z,31.06
2016-08-27T12:32:14.847Z,31.09
2016-08-27T12:33:15.511Z,31.06
2016-08-27T12:34:14.789Z,31.06
2016-08-27T12:35:15.469Z,31.12
2016-08-27T12:36:14.046Z,31.04
2016-08-27T12:37:14.721Z,30.98
2016-08-27T12:38:14.697Z,30.97
2016-08-27T12:39:15.369Z,30.79
2016-08-27T12:40:15.356Z,30.64
2016-08-27T12:41:15.326Z,30.62
2016-08-27T12:42:15.299Z,30.65
2016-08-27T12:43:14.576Z,30.62
2016-08-27T12:44:14.555Z,30.72
2016-08-27T12:45:14.530Z,30.64
2016-08-27T12:46:15.212Z,30.77
2016-08-27T12:47:14.500Z,30.79
2016-08-27T12:48:15.160Z,30.77
2016-08-27T12:49:15.138Z,30.84
2016-08-27T12:50:15.114Z,30.83
2016-08-27T12:51:15.089Z,30.62
2016-08-27T12:52:15.063Z,30.7
2016-08-27T12:53:15.043Z,30.65
2016-08-27T12:54:14.324Z,30.7
2016-08-27T12:55:15.001Z,30.7